createdAt,value
2023-03-02T00:02:18.605Z,110.88
2023-03-02T00:05:09.316Z,111.70
2023-03-02T00:07:37.166Z,95.82
2023-03-02T00:10:05.692Z,106.72
2023-03-02T00:12:34.046Z,103.10
2023-03-02T00:15:01.348Z,100.85
2023-03-02T00:17:28.337Z,100.53
2023-03-02T00:20:11.535Z,103.50
2023-03-02T00:22:39.848Z,99.80
2023-03-02T00:25:08.031Z,101.15
2023-03-02T00:27:35.146Z,97.07
2023-03-02T00:30:02.597Z,95.32
2023-03-02T00:32:29.510Z,106.28
2023-03-02T00:34:56.854Z,93.80
2023-03-02T00:37:25.784Z,91.70
2023-03-02T00:39:53.724Z,101.30
2023-03-02T00:42:21.754Z,108.65
2023-03-02T00:44:48.930Z,108.65
2023-03-02T00:47:15.835Z,113.78
2023-03-02T00:49:49.649Z,109.95
2023-03-02T00:52:17.210Z,106.53
2023-03-02T00:54:44.462Z,104.35
2023-03-02T00:57:11.498Z,105.25
2023-03-02T00:59:39.496Z,108.05
2023-03-02T01:02:07.215Z,103.22
2023-03-02T01:04:38.379Z,106.35
2023-03-02T01:07:16.607Z,105.93
2023-03-02T01:09:45.223Z,98.65
2023-03-02T01:12:12.571Z,98.00
2023-03-02T01:14:44.166Z,115.22
2023-03-02T01:17:11.914Z,101.47
2023-03-02T01:19:39.683Z,102.50
2023-03-02T01:22:07.008Z,135.40
2023-03-02T01:24:34.425Z,109.47
2023-03-02T01:27:01.355Z,121.78
2023-03-02T01:29:28.485Z,110.40
2023-03-02T01:31:55.952Z,104.75
2023-03-02T01:34:23.227Z,97.10
2023-03-02T01:36:50.219Z,103.22
2023-03-02T01:39:17.372Z,127.43
2023-03-02T01:41:45.687Z,101.68
2023-03-02T01:44:45.325Z,95.70
2023-03-02T01:47:17.992Z,122.00
2023-03-02T01:49:50.484Z,170.77
2023-03-02T01:52:18.288Z,135.82
2023-03-02T01:54:49.999Z,120.53
2023-03-02T01:57:23.564Z,113.03
2023-03-02T01:59:55.383Z,99.68
2023-03-02T02:02:22.406Z,121.47
2023-03-02T02:04:50.723Z,123.00
2023-03-02T02:07:17.581Z,124.82
2023-03-02T02:09:48.069Z,133.57
2023-03-02T02:12:20.613Z,109.85
2023-03-02T02:14:48.625Z,109.88
2023-03-02T02:17:18.114Z,103.13
2023-03-02T02:20:07.336Z,105.38
2023-03-02T02:23:04.957Z,145.68
2023-03-02T02:25:35.167Z,100.28
2023-03-02T02:28:08.800Z,101.80
2023-03-02T02:30:38.190Z,115.00
2023-03-02T02:33:06.047Z,125.70
2023-03-02T02:35:36.600Z,120.55
2023-03-02T02:38:06.795Z,120.88
2023-03-02T02:40:48.316Z,106.53
2023-03-02T02:43:17.932Z,109.55
2023-03-02T02:45:46.171Z,107.70
2023-03-02T02:48:18.943Z,106.25
2023-03-02T02:50:47.359Z,103.13
2023-03-02T02:53:27.361Z,103.93
2023-03-02T02:55:58.045Z,99.75
2023-03-02T02:58:45.019Z,89.28
2023-03-02T03:01:18.589Z,89.97
2023-03-02T03:03:57.298Z,97.10
2023-03-02T03:06:27.383Z,106.63
2023-03-02T03:09:00.226Z,103.30
2023-03-02T03:11:33.972Z,94.50
2023-03-02T03:14:06.385Z,92.07
2023-03-02T03:16:35.207Z,93.97
2023-03-02T03:19:26.237Z,103.32
2023-03-02T03:21:56.630Z,95.13
2023-03-02T03:24:24.435Z,101.97
2023-03-02T03:26:54.257Z,95.88
2023-03-02T03:29:24.212Z,101.28
2023-03-02T03:31:53.020Z,95.88
2023-03-02T03:34:20.227Z,78.85
2023-03-02T03:36:47.992Z,86.00
2023-03-02T03:39:16.607Z,84.63
2023-03-02T03:41:44.399Z,95.80
2023-03-02T03:44:12.171Z,89.32
2023-03-02T03:46:39.356Z,77.35
2023-03-02T03:49:06.494Z,85.43
2023-03-02T03:51:35.502Z,80.30
2023-03-02T03:54:05.309Z,86.47
2023-03-02T03:56:35.414Z,86.93
2023-03-02T03:59:07.565Z,83.05
2023-03-02T04:01:41.186Z,84.15
2023-03-02T04:04:11.178Z,79.30
2023-03-02T04:06:38.412Z,82.30
2023-03-02T04:09:06.643Z,77.13
2023-03-02T04:11:36.626Z,82.35
2023-03-02T04:14:03.825Z,76.88
2023-03-02T04:16:32.279Z,80.25
2023-03-02T04:19:00.245Z,90.65
2023-03-02T04:21:28.562Z,89.60
2023-03-02T04:23:55.501Z,86.32
2023-03-02T04:26:23.009Z,78.55
2023-03-02T04:28:50.931Z,77.63
2023-03-02T04:31:18.388Z,81.78
2023-03-02T04:33:45.484Z,81.47
2023-03-02T04:36:12.731Z,79.28
2023-03-02T04:38:39.729Z,77.97
2023-03-02T04:41:07.047Z,74.03
2023-03-02T04:43:34.036Z,89.03
2023-03-02T04:46:01.236Z,75.68
2023-03-02T04:48:28.601Z,86.28
2023-03-02T04:50:55.787Z,79.72
2023-03-02T04:53:22.645Z,83.47
2023-03-02T04:55:49.832Z,87.50
2023-03-02T04:58:16.717Z,95.82
2023-03-02T05:00:44.119Z,79.07
2023-03-02T05:03:10.986Z,78.18
2023-03-02T05:05:38.424Z,83.18
2023-03-02T05:08:05.410Z,74.07
2023-03-02T05:10:32.664Z,80.13
2023-03-02T05:13:02.722Z,82.13
2023-03-02T05:15:36.637Z,73.53
2023-03-02T05:18:06.134Z,75.85
2023-03-02T05:20:41.788Z,87.43
2023-03-02T05:23:10.949Z,85.95
2023-03-02T05:25:38.647Z,82.13
2023-03-02T05:28:05.916Z,74.78
2023-03-02T05:30:37.475Z,80.40
2023-03-02T05:33:04.619Z,74.25
2023-03-02T05:35:31.869Z,78.03
2023-03-02T05:37:58.771Z,73.13
2023-03-02T05:40:26.112Z,77.35
2023-03-02T05:42:53.173Z,83.78
2023-03-02T05:45:25.457Z,79.45
2023-03-02T05:47:52.902Z,85.47
2023-03-02T05:50:20.503Z,84.47
2023-03-02T05:52:47.670Z,80.47
2023-03-02T05:55:16.269Z,71.53
2023-03-02T05:57:43.761Z,75.68
2023-03-02T06:00:12.922Z,69.00
2023-03-02T06:02:41.301Z,72.70
2023-03-02T06:05:11.642Z,78.43
2023-03-02T06:07:38.921Z,73.07
2023-03-02T06:10:07.974Z,73.25
2023-03-02T06:12:34.891Z,69.72
2023-03-02T06:15:02.187Z,77.97
2023-03-02T06:17:29.096Z,76.72
2023-03-02T06:19:56.224Z,83.78
2023-03-02T06:22:23.120Z,82.78
2023-03-02T06:24:50.270Z,84.20
2023-03-02T06:27:17.122Z,77.80
2023-03-02T06:29:44.792Z,88.68
2023-03-02T06:32:11.846Z,69.38
2023-03-02T06:34:39.079Z,76.10
2023-03-02T06:37:05.874Z,71.32
2023-03-02T06:39:34.052Z,77.03
2023-03-02T06:42:00.986Z,86.35
2023-03-02T06:44:28.220Z,74.13
2023-03-02T06:46:55.163Z,75.68
2023-03-02T06:49:22.314Z,81.35
2023-03-02T06:51:49.207Z,74.97
2023-03-02T06:54:16.351Z,90.85
2023-03-02T06:56:43.158Z,95.30
2023-03-02T06:59:10.289Z,90.95
2023-03-02T07:01:37.172Z,103.55
2023-03-02T07:04:04.662Z,92.93
2023-03-02T07:06:31.541Z,95.90
2023-03-02T07:08:58.720Z,83.55
2023-03-02T07:11:25.543Z,96.30
2023-03-02T07:13:52.787Z,92.88
2023-03-02T07:16:19.785Z,114.10
2023-03-02T07:18:46.953Z,117.03
2023-03-02T07:21:13.801Z,112.80
2023-03-02T07:23:40.894Z,119.03
2023-03-02T07:26:08.954Z,125.15
2023-03-02T07:28:39.768Z,127.90
2023-03-02T07:31:07.413Z,118.57
2023-03-02T07:33:35.610Z,111.93
2023-03-02T07:36:03.091Z,122.85
2023-03-02T07:38:32.944Z,150.27
2023-03-02T07:40:59.787Z,132.38
2023-03-02T07:43:28.834Z,129.75
2023-03-02T07:45:59.609Z,132.05
2023-03-02T07:48:27.162Z,121.55
2023-03-02T07:51:01.692Z,118.20
2023-03-02T07:53:29.456Z,112.63
2023-03-02T07:55:56.561Z,110.55
2023-03-02T07:58:24.528Z,95.85
2023-03-02T08:00:55.762Z,99.75
2023-03-02T08:03:22.918Z,95.13
2023-03-02T08:05:49.925Z,109.72
2023-03-02T08:08:17.072Z,95.88
2023-03-02T08:10:43.917Z,126.07
2023-03-02T08:13:11.076Z,105.90
2023-03-02T08:15:37.956Z,80.88
2023-03-02T08:18:05.237Z,75.28
2023-03-02T08:20:32.328Z,73.93
2023-03-02T08:22:59.493Z,77.55
2023-03-02T08:25:26.322Z,76.53
2023-03-02T08:27:53.627Z,78.78
2023-03-02T08:30:20.628Z,69.97
2023-03-02T08:32:47.930Z,66.55
2023-03-02T08:35:15.334Z,41.40
2023-03-02T08:37:42.427Z,46.08
2023-03-02T08:40:10.018Z,54.42
2023-03-02T08:42:37.125Z,47.88
2023-03-02T08:45:04.372Z,39.95
2023-03-02T08:47:32.521Z,36.40
2023-03-02T08:49:59.597Z,30.42
2023-03-02T08:52:26.741Z,34.50
2023-03-02T08:54:53.707Z,33.95
2023-03-02T08:57:21.413Z,30.95
2023-03-02T08:59:48.487Z,34.75
2023-03-02T09:02:15.671Z,45.15
2023-03-02T09:04:42.887Z,38.80
2023-03-02T09:07:10.478Z,51.80
2023-03-02T09:09:37.390Z,35.03
2023-03-02T09:12:05.198Z,47.72
2023-03-02T09:14:32.110Z,30.58
2023-03-02T09:16:59.375Z,28.48
2023-03-02T09:19:26.308Z,15.02
2023-03-02T09:21:53.433Z,18.77
2023-03-02T09:24:20.254Z,16.80
2023-03-02T09:26:47.339Z,14.95
2023-03-02T09:29:14.268Z,18.85
2023-03-02T09:31:41.384Z,17.40
2023-03-02T09:34:08.241Z,16.65
2023-03-02T09:36:35.416Z,17.20
2023-03-02T09:39:08.525Z,18.50
2023-03-02T09:42:05.121Z,17.38
2023-03-02T09:44:31.927Z,16.20
2023-03-02T09:47:29.943Z,14.75
2023-03-02T09:50:19.080Z,12.30
2023-03-02T09:52:56.338Z,13.35
2023-03-02T09:55:28.173Z,12.10
2023-03-02T09:57:56.201Z,16.27
2023-03-02T10:00:55.133Z,17.40
2023-03-02T10:03:28.178Z,46.63
2023-03-02T10:05:56.340Z,15.15
2023-03-02T10:08:27.237Z,25.05
2023-03-02T10:11:03.108Z,13.00
2023-03-02T10:13:37.223Z,11.90
2023-03-02T10:16:22.020Z,14.77
2023-03-02T10:19:07.984Z,12.45
2023-03-02T10:21:44.409Z,15.38
2023-03-02T10:24:30.404Z,15.38
2023-03-02T10:27:28.660Z,15.75
2023-03-02T10:29:55.778Z,20.63
2023-03-02T10:32:30.091Z,14.95
2023-03-02T10:35:01.738Z,14.90
2023-03-02T10:42:29.212Z,15.48
2023-03-02T10:45:02.465Z,14.45
2023-03-02T10:47:29.727Z,15.45
2023-03-02T10:49:57.876Z,14.73
2023-03-02T10:52:27.428Z,32.15
2023-03-02T10:55:13.922Z,22.90
2023-03-02T10:57:43.065Z,23.60
2023-03-02T11:00:28.108Z,23.85
2023-03-02T11:02:58.002Z,24.45
2023-03-02T11:05:46.822Z,23.63
2023-03-02T11:08:19.502Z,19.17
2023-03-02T11:11:00.952Z,22.83
2023-03-02T11:13:39.466Z,18.65
2023-03-02T11:16:34.999Z,19.08
2023-03-02T11:19:15.398Z,21.27
2023-03-02T11:22:06.114Z,23.85
2023-03-02T11:24:41.550Z,19.38
2023-03-02T11:27:30.876Z,18.52
2023-03-02T11:30:11.908Z,22.25
2023-03-02T11:33:01.688Z,18.52
2023-03-02T11:35:36.570Z,17.90
2023-03-02T11:38:30.166Z,20.55
2023-03-02T11:41:04.859Z,18.50
2023-03-02T11:43:32.870Z,20.15
2023-03-02T11:46:14.020Z,18.60
2023-03-02T11:48:50.934Z,16.38
2023-03-02T11:51:24.714Z,18.45
2023-03-02T11:54:06.614Z,17.45
2023-03-02T11:56:39.831Z,15.02
2023-03-02T11:59:19.607Z,13.52
2023-03-02T12:01:50.649Z,26.38
2023-03-02T12:04:44.236Z,16.77
2023-03-02T12:07:24.342Z,16.02
2023-03-02T12:10:28.658Z,18.35
2023-03-02T12:13:25.681Z,18.05
2023-03-02T12:15:53.428Z,18.27
2023-03-02T12:18:20.702Z,17.08
2023-03-02T12:21:05.488Z,18.20
2023-03-02T12:23:35.779Z,17.25
2023-03-02T12:26:06.053Z,18.05
2023-03-02T12:28:39.589Z,18.05
2023-03-02T12:31:13.557Z,19.40
2023-03-02T12:33:47.809Z,22.90
2023-03-02T12:36:25.700Z,23.95
2023-03-02T12:39:24.142Z,19.88
2023-03-02T12:42:05.480Z,19.60
2023-03-02T12:44:46.856Z,20.55
2023-03-02T12:47:34.107Z,21.50
2023-03-02T12:50:05.642Z,24.58
2023-03-02T12:52:36.221Z,19.35
2023-03-02T12:55:07.182Z,22.17
2023-03-02T12:57:39.161Z,20.77
2023-03-02T13:00:15.111Z,21.60
2023-03-02T13:02:49.740Z,22.27
2023-03-02T13:05:34.490Z,25.17
2023-03-02T13:08:07.140Z,23.75
2023-03-02T13:10:48.339Z,22.70
2023-03-02T13:13:39.326Z,19.90
2023-03-02T13:16:19.221Z,19.88
2023-03-02T13:18:47.600Z,20.75
2023-03-02T13:21:16.444Z,20.55
2023-03-02T13:23:49.229Z,18.65
2023-03-02T13:26:30.503Z,19.17
2023-03-02T13:29:09.357Z,26.70
2023-03-02T13:31:37.365Z,15.95
2023-03-02T13:34:04.645Z,17.35
2023-03-02T13:36:41.448Z,17.52
2023-03-02T13:39:20.024Z,19.58
2023-03-02T13:41:56.377Z,17.48
2023-03-02T13:44:34.864Z,20.13
2023-03-02T13:47:02.396Z,16.52
2023-03-02T13:49:35.380Z,14.48
2023-03-02T13:52:08.219Z,12.60
2023-03-02T13:54:37.555Z,13.07
2023-03-02T13:57:06.352Z,13.85
2023-03-02T13:59:36.563Z,12.52
2023-03-02T14:02:06.577Z,14.57
2023-03-02T14:04:38.161Z,10.68
2023-03-02T14:07:05.069Z,72.43
2023-03-02T14:09:32.262Z,15.57
2023-03-02T14:11:59.284Z,14.13
2023-03-02T14:14:29.223Z,12.85
2023-03-02T14:16:56.702Z,13.35
2023-03-02T14:19:24.787Z,10.18
2023-03-02T14:21:51.637Z,11.85
2023-03-02T14:24:18.788Z,12.10
2023-03-02T14:26:48.408Z,11.93
2023-03-02T14:29:23.364Z,11.77
2023-03-02T14:31:50.610Z,10.05
2023-03-02T14:34:18.135Z,10.73
2023-03-02T14:36:48.888Z,10.50
2023-03-02T14:39:20.875Z,14.82
2023-03-02T14:41:53.886Z,11.15
2023-03-02T14:44:22.790Z,12.05
2023-03-02T14:46:50.100Z,12.48
2023-03-02T14:49:17.244Z,14.52
2023-03-02T14:51:53.719Z,14.88
2023-03-02T14:54:21.025Z,12.15
2023-03-02T14:56:49.420Z,10.88
2023-03-02T14:59:17.921Z,14.32
2023-03-02T15:01:44.862Z,14.00
2023-03-02T15:04:12.221Z,12.93
2023-03-02T15:06:43.179Z,18.63
2023-03-02T15:11:37.673Z,15.48
2023-03-02T15:14:04.921Z,14.63
2023-03-02T15:16:31.988Z,14.23
2023-03-02T15:18:59.162Z,13.85
2023-03-02T15:21:26.144Z,14.77
2023-03-02T15:23:53.775Z,14.32
2023-03-02T15:26:20.618Z,17.45
2023-03-02T15:28:51.094Z,13.23
2023-03-02T15:31:18.805Z,15.95
2023-03-02T15:33:47.278Z,12.07
2023-03-02T15:36:14.452Z,13.23
2023-03-02T15:38:41.852Z,16.85
2023-03-02T15:41:12.695Z,16.85
2023-03-02T15:43:40.209Z,20.83
2023-03-02T15:46:09.182Z,21.65
2023-03-02T15:48:37.203Z,17.13
2023-03-02T15:51:08.525Z,15.95
2023-03-02T15:53:38.429Z,17.00
2023-03-02T15:56:38.786Z,14.90
2023-03-02T15:59:11.709Z,13.80
2023-03-02T16:01:38.562Z,15.88
2023-03-02T16:04:05.678Z,16.05
2023-03-02T16:06:36.474Z,16.70
2023-03-02T16:09:03.736Z,17.55
2023-03-02T16:11:30.627Z,15.82
2023-03-02T16:13:57.838Z,19.98
2023-03-02T16:16:28.600Z,19.65
2023-03-02T16:18:59.625Z,25.95
2023-03-02T16:21:28.706Z,28.92
2023-03-02T16:24:03.139Z,21.60
2023-03-02T16:26:35.488Z,27.25
2023-03-02T16:29:04.223Z,29.25
2023-03-02T16:31:33.242Z,25.25
2023-03-02T16:34:03.853Z,28.05
2023-03-02T16:36:30.893Z,31.38
2023-03-02T16:38:58.070Z,30.73
2023-03-02T16:41:25.814Z,33.83
2023-03-02T16:43:55.973Z,39.97
2023-03-02T16:46:25.484Z,34.72
2023-03-02T16:48:53.666Z,36.45
2023-03-02T16:51:20.892Z,32.88
2023-03-02T16:53:49.051Z,36.13
2023-03-02T16:56:16.403Z,34.78
2023-03-02T16:58:43.949Z,31.50
2023-03-02T17:01:22.537Z,46.95
2023-03-02T17:03:51.017Z,46.47
2023-03-02T17:06:20.490Z,41.60
2023-03-02T17:08:47.678Z,41.28
2023-03-02T17:11:14.572Z,39.25
2023-03-02T17:13:42.297Z,36.30
2023-03-02T17:16:09.382Z,32.58
2023-03-02T17:18:36.577Z,34.58
2023-03-02T17:21:04.847Z,32.35
2023-03-02T17:23:32.428Z,32.80
2023-03-02T17:25:59.767Z,29.77
2023-03-02T17:28:27.163Z,34.15
2023-03-02T17:30:54.306Z,30.92
2023-03-02T17:33:21.723Z,31.17
2023-03-02T17:35:49.293Z,38.00
2023-03-02T17:38:16.617Z,40.33
2023-03-02T17:40:44.069Z,37.97
2023-03-02T17:43:12.567Z,42.05
2023-03-02T17:45:39.892Z,43.55
2023-03-02T17:48:07.399Z,38.40
2023-03-02T17:50:34.531Z,42.88
2023-03-02T17:53:03.008Z,36.60
2023-03-02T17:55:30.424Z,43.60
2023-03-02T17:57:57.575Z,37.03
2023-03-02T18:00:25.038Z,33.70
2023-03-02T18:02:52.881Z,35.65
2023-03-02T18:05:21.543Z,39.72
2023-03-02T18:07:48.837Z,42.15
2023-03-02T18:10:15.982Z,45.28
2023-03-02T18:12:43.350Z,35.63
2023-03-02T18:15:11.578Z,44.78
2023-03-02T18:17:39.165Z,42.10
2023-03-02T18:20:06.725Z,47.33
2023-03-02T18:22:33.976Z,45.50
2023-03-02T18:25:01.033Z,48.97
2023-03-02T18:27:28.335Z,53.85
2023-03-02T18:29:55.409Z,42.38
2023-03-02T18:32:23.068Z,42.85
2023-03-02T18:34:50.000Z,43.03
2023-03-02T18:37:17.452Z,50.22
2023-03-02T18:39:44.857Z,44.22
2023-03-02T18:42:12.796Z,47.40
2023-03-02T18:44:39.859Z,51.67
2023-03-02T18:47:07.701Z,41.28
2023-03-02T18:49:34.932Z,48.67
2023-03-02T18:52:05.903Z,48.03
2023-03-02T18:54:32.977Z,44.00
2023-03-02T18:57:01.693Z,44.25
2023-03-02T18:59:29.907Z,42.70
2023-03-02T19:01:57.594Z,44.13
2023-03-02T19:04:26.792Z,44.30
2023-03-02T19:06:56.207Z,42.90
2023-03-02T19:09:23.534Z,50.03
2023-03-02T19:11:50.825Z,45.67
2023-03-02T19:14:18.105Z,40.30
2023-03-02T19:16:45.619Z,43.15
2023-03-02T19:19:12.738Z,40.42
2023-03-02T19:21:39.956Z,45.15
2023-03-02T19:24:07.208Z,38.58
2023-03-02T19:26:34.942Z,39.42
2023-03-02T19:29:01.872Z,49.03
2023-03-02T19:31:31.389Z,41.50
2023-03-02T19:33:58.703Z,43.28
2023-03-02T19:36:26.000Z,42.40
2023-03-02T19:38:52.992Z,40.95
2023-03-02T19:41:20.925Z,46.17
2023-03-02T19:43:47.879Z,41.05
2023-03-02T19:46:16.478Z,41.25
2023-03-02T19:48:44.093Z,43.08
2023-03-02T19:51:12.196Z,52.70
2023-03-02T19:53:40.311Z,49.30
2023-03-02T19:56:30.697Z,50.70
2023-03-02T19:58:57.779Z,44.67
2023-03-02T20:01:29.978Z,46.35
2023-03-02T20:04:00.842Z,44.28
2023-03-02T20:06:31.404Z,48.85
2023-03-02T20:09:00.694Z,53.22
2023-03-02T20:11:30.296Z,47.40
2023-03-02T20:14:02.258Z,45.55
2023-03-02T20:16:31.700Z,51.40
2023-03-02T20:19:00.787Z,45.22
2023-03-02T20:21:29.251Z,46.60
2023-03-02T20:23:56.421Z,50.75
2023-03-02T20:26:24.660Z,48.88
2023-03-02T20:28:53.665Z,46.45
2023-03-02T20:31:21.493Z,45.47
2023-03-02T20:33:51.590Z,50.25
2023-03-02T20:36:25.177Z,53.00
2023-03-02T20:38:58.008Z,46.40
2023-03-02T20:41:25.827Z,50.80
2023-03-02T20:43:53.240Z,49.28
2023-03-02T20:46:33.792Z,50.38
2023-03-02T20:49:01.212Z,48.95
2023-03-02T20:51:29.423Z,39.47
2023-03-02T20:53:56.854Z,52.33
2023-03-02T20:56:24.121Z,50.22
2023-03-02T20:58:51.626Z,48.22
2023-03-02T21:01:20.956Z,51.88
2023-03-02T21:03:47.820Z,57.08
2023-03-02T21:06:15.347Z,53.22
2023-03-02T21:08:43.132Z,53.83
2023-03-02T21:11:15.913Z,61.17
2023-03-02T21:13:46.677Z,51.35
2023-03-02T21:16:26.802Z,53.15
2023-03-02T21:18:55.252Z,52.72
2023-03-02T21:21:40.408Z,55.40
2023-03-02T21:24:20.764Z,50.42
2023-03-02T21:26:50.986Z,53.80
2023-03-02T21:29:20.709Z,65.28
2023-03-02T21:31:48.030Z,53.97
2023-03-02T21:34:16.196Z,63.63
2023-03-02T21:36:43.726Z,58.15
2023-03-02T21:39:11.945Z,61.35
2023-03-02T21:41:39.648Z,57.72
2023-03-02T21:44:07.040Z,52.92
2023-03-02T21:46:36.706Z,64.20
2023-03-02T21:49:04.062Z,55.50
2023-03-02T21:51:32.525Z,63.88
2023-03-02T21:53:59.565Z,57.00
2023-03-02T21:56:27.507Z,54.92
2023-03-02T21:58:56.677Z,58.78
2023-03-02T22:01:25.177Z,72.32
2023-03-02T22:03:52.402Z,80.43
2023-03-02T22:06:31.676Z,87.18
2023-03-02T22:08:59.336Z,71.65
2023-03-02T22:11:29.614Z,80.57
2023-03-02T22:14:10.276Z,63.42
2023-03-02T22:16:40.120Z,62.75
2023-03-02T22:19:30.625Z,67.22
2023-03-02T22:22:06.237Z,64.47
2023-03-02T22:24:34.195Z,68.97
2023-03-02T22:27:16.893Z,58.95
2023-03-02T22:29:46.425Z,56.47
2023-03-02T22:32:19.114Z,62.97
2023-03-02T22:34:47.839Z,65.97
2023-03-02T22:37:20.575Z,55.28
2023-03-02T22:39:48.559Z,59.63
2023-03-02T22:42:21.389Z,62.53
2023-03-02T22:45:14.709Z,56.88
2023-03-02T22:47:43.371Z,70.07
2023-03-02T22:50:23.019Z,71.50
2023-03-02T22:52:50.776Z,71.03
2023-03-02T22:55:35.886Z,68.70
2023-03-02T22:58:30.717Z,57.67
2023-03-02T23:01:00.208Z,61.72
2023-03-02T23:03:40.819Z,62.28
2023-03-02T23:06:31.567Z,55.25
2023-03-02T23:09:04.750Z,65.65
2023-03-02T23:11:38.396Z,61.58
2023-03-02T23:14:24.180Z,56.10
2023-03-02T23:17:01.917Z,64.25
2023-03-02T23:19:31.465Z,57.58
2023-03-02T23:21:59.596Z,55.10
2023-03-02T23:24:27.351Z,55.90
2023-03-02T23:26:57.548Z,50.60
2023-03-02T23:29:24.739Z,53.67
2023-03-02T23:31:51.903Z,60.33
2023-03-02T23:34:19.082Z,58.72
2023-03-02T23:36:46.005Z,60.25
2023-03-02T23:39:16.076Z,60.75
2023-03-02T23:41:43.630Z,57.88
2023-03-02T23:44:10.803Z,60.83
2023-03-02T23:46:37.684Z,57.85
2023-03-02T23:49:04.811Z,57.15
2023-03-02T23:51:31.718Z,54.92
2023-03-02T23:53:59.009Z,52.10
2023-03-02T23:56:25.859Z,50.20
2023-03-02T23:58:53.052Z,53.53
